sensor_id;sensor_type;location;lat;lon;timestamp;temperature;humidity
64198;SHT31;50512;53.666;9.700;2022-07-29T00:00:14;12.18;85.79
64198;SHT31;50512;53.666;9.700;2022-07-29T00:02:39;12.11;86.68
64198;SHT31;50512;53.666;9.700;2022-07-29T00:05:05;11.99;86.66
64198;SHT31;50512;53.666;9.700;2022-07-29T00:07:32;11.87;86.88
64198;SHT31;50512;53.666;9.700;2022-07-29T00:09:58;11.74;87.56
64198;SHT31;50512;53.666;9.700;2022-07-29T00:12:24;11.73;87.75
64198;SHT31;50512;53.666;9.700;2022-07-29T00:14:50;11.73;87.99
64198;SHT31;50512;53.666;9.700;2022-07-29T00:17:16;11.63;88.07
64198;SHT31;50512;53.666;9.700;2022-07-29T00:19:42;11.63;88.36
64198;SHT31;50512;53.666;9.700;2022-07-29T00:22:07;11.70;87.68
64198;SHT31;50512;53.666;9.700;2022-07-29T00:24:34;11.63;87.36
64198;SHT31;50512;53.666;9.700;2022-07-29T00:27:00;11.60;87.44
64198;SHT31;50512;53.666;9.700;2022-07-29T00:29:25;11.59;87.74
64198;SHT31;50512;53.666;9.700;2022-07-29T00:31:51;11.53;87.60
64198;SHT31;50512;53.666;9.700;2022-07-29T00:34:16;11.53;88.01
64198;SHT31;50512;53.666;9.700;2022-07-29T00:36:42;11.52;87.88
64198;SHT31;50512;53.666;9.700;2022-07-29T00:39:07;11.54;87.64
64198;SHT31;50512;53.666;9.700;2022-07-29T00:41:34;11.53;88.21
64198;SHT31;50512;53.666;9.700;2022-07-29T00:44:00;11.60;88.15
64198;SHT31;50512;53.666;9.700;2022-07-29T00:46:25;11.57;89.03
64198;SHT31;50512;53.666;9.700;2022-07-29T00:48:50;11.63;89.78
64198;SHT31;50512;53.666;9.700;2022-07-29T00:51:16;11.63;89.39
64198;SHT31;50512;53.666;9.700;2022-07-29T00:53:41;11.64;89.78
64198;SHT31;50512;53.666;9.700;2022-07-29T00:56:07;11.62;90.01
64198;SHT31;50512;53.666;9.700;2022-07-29T00:58:34;11.63;88.72
64198;SHT31;50512;53.666;9.700;2022-07-29T01:00:59;11.66;88.08
64198;SHT31;50512;53.666;9.700;2022-07-29T01:03:25;11.71;89.25
64198;SHT31;50512;53.666;9.700;2022-07-29T01:05:50;11.73;89.80
64198;SHT31;50512;53.666;9.700;2022-07-29T01:08:17;11.69;89.51
64198;SHT31;50512;53.666;9.700;2022-07-29T01:10:43;11.69;89.78
64198;SHT31;50512;53.666;9.700;2022-07-29T01:13:09;11.63;89.47
64198;SHT31;50512;53.666;9.700;2022-07-29T01:15:40;11.62;89.23
64198;SHT31;50512;53.666;9.700;2022-07-29T01:18:11;11.62;89.17
64198;SHT31;50512;53.666;9.700;2022-07-29T01:20:52;11.59;89.44
64198;SHT31;50512;53.666;9.700;2022-07-29T01:26:33;11.63;89.68
64198;SHT31;50512;53.666;9.700;2022-07-29T01:29:05;11.64;89.30
64198;SHT31;50512;53.666;9.700;2022-07-29T01:31:35;11.57;89.60
64198;SHT31;50512;53.666;9.700;2022-07-29T01:34:06;11.57;89.90
64198;SHT31;50512;53.666;9.700;2022-07-29T01:36:36;11.57;90.29
64198;SHT31;50512;53.666;9.700;2022-07-29T01:39:06;11.56;90.56
64198;SHT31;50512;53.666;9.700;2022-07-29T01:41:36;11.59;90.38
64198;SHT31;50512;53.666;9.700;2022-07-29T01:44:11;11.64;90.22
64198;SHT31;50512;53.666;9.700;2022-07-29T01:46:41;11.62;90.01
64198;SHT31;50512;53.666;9.700;2022-07-29T01:49:13;11.62;90.11
64198;SHT31;50512;53.666;9.700;2022-07-29T01:51:45;11.66;90.14
64198;SHT31;50512;53.666;9.700;2022-07-29T01:54:16;11.67;89.83
64198;SHT31;50512;53.666;9.700;2022-07-29T01:56:45;11.73;89.63
64198;SHT31;50512;53.666;9.700;2022-07-29T01:59:13;11.78;88.58
64198;SHT31;50512;53.666;9.700;2022-07-29T02:01:41;11.78;88.41
64198;SHT31;50512;53.666;9.700;2022-07-29T02:04:09;11.84;88.81
64198;SHT31;50512;53.666;9.700;2022-07-29T02:06:37;11.84;88.08
64198;SHT31;50512;53.666;9.700;2022-07-29T02:09:04;11.84;88.25
64198;SHT31;50512;53.666;9.700;2022-07-29T02:11:33;11.84;88.25
64198;SHT31;50512;53.666;9.700;2022-07-29T02:14:00;11.90;88.04
64198;SHT31;50512;53.666;9.700;2022-07-29T02:16:29;11.92;87.46
64198;SHT31;50512;53.666;9.700;2022-07-29T02:18:57;11.97;86.32
64198;SHT31;50512;53.666;9.700;2022-07-29T02:21:25;11.99;87.23
64198;SHT31;50512;53.666;9.700;2022-07-29T02:23:52;12.01;87.56
64198;SHT31;50512;53.666;9.700;2022-07-29T02:26:19;12.06;87.20
64198;SHT31;50512;53.666;9.700;2022-07-29T02:28:46;12.05;87.06
64198;SHT31;50512;53.666;9.700;2022-07-29T02:31:15;12.09;86.92
64198;SHT31;50512;53.666;9.700;2022-07-29T02:33:46;12.15;86.12
64198;SHT31;50512;53.666;9.700;2022-07-29T02:36:13;12.12;85.42
64198;SHT31;50512;53.666;9.700;2022-07-29T02:38:41;12.14;86.58
64198;SHT31;50512;53.666;9.700;2022-07-29T02:41:11;12.19;86.47
64198;SHT31;50512;53.666;9.700;2022-07-29T02:43:38;12.17;85.64
64198;SHT31;50512;53.666;9.700;2022-07-29T02:46:05;12.15;86.10
64198;SHT31;50512;53.666;9.700;2022-07-29T02:48:37;12.18;85.27
64198;SHT31;50512;53.666;9.700;2022-07-29T02:51:11;12.22;85.77
64198;SHT31;50512;53.666;9.700;2022-07-29T02:53:38;12.14;86.01
64198;SHT31;50512;53.666;9.700;2022-07-29T02:56:07;12.19;85.53
64198;SHT31;50512;53.666;9.700;2022-07-29T02:58:38;12.18;85.68
64198;SHT31;50512;53.666;9.700;2022-07-29T03:01:10;12.18;85.58
64198;SHT31;50512;53.666;9.700;2022-07-29T03:03:38;12.24;86.26
64198;SHT31;50512;53.666;9.700;2022-07-29T03:06:07;12.22;85.57
64198;SHT31;50512;53.666;9.700;2022-07-29T03:08:34;12.24;85.41
64198;SHT31;50512;53.666;9.700;2022-07-29T03:11:01;12.26;85.71
64198;SHT31;50512;53.666;9.700;2022-07-29T03:13:27;12.26;85.27
64198;SHT31;50512;53.666;9.700;2022-07-29T03:15:55;12.30;85.77
64198;SHT31;50512;53.666;9.700;2022-07-29T03:18:23;12.28;85.72
64198;SHT31;50512;53.666;9.700;2022-07-29T03:20:49;12.35;85.70
64198;SHT31;50512;53.666;9.700;2022-07-29T03:23:20;12.37;85.12
64198;SHT31;50512;53.666;9.700;2022-07-29T03:25:46;12.40;85.35
64198;SHT31;50512;53.666;9.700;2022-07-29T03:28:12;12.37;84.72
64198;SHT31;50512;53.666;9.700;2022-07-29T03:30:38;12.49;84.81
64198;SHT31;50512;53.666;9.700;2022-07-29T03:33:03;12.52;85.08
64198;SHT31;50512;53.666;9.700;2022-07-29T03:35:29;12.55;84.72
64198;SHT31;50512;53.666;9.700;2022-07-29T03:37:55;12.55;84.48
64198;SHT31;50512;53.666;9.700;2022-07-29T03:40:27;12.55;84.72
64198;SHT31;50512;53.666;9.700;2022-07-29T03:42:56;12.67;83.94
64198;SHT31;50512;53.666;9.700;2022-07-29T03:45:24;12.67;84.99
64198;SHT31;50512;53.666;9.700;2022-07-29T03:47:54;12.72;84.93
64198;SHT31;50512;53.666;9.700;2022-07-29T03:50:22;12.74;84.71
64198;SHT31;50512;53.666;9.700;2022-07-29T03:52:49;12.74;84.30
64198;SHT31;50512;53.666;9.700;2022-07-29T03:55:15;12.70;84.21
64198;SHT31;50512;53.666;9.700;2022-07-29T03:57:44;12.72;84.72
64198;SHT31;50512;53.666;9.700;2022-07-29T04:00:11;12.76;84.64
64198;SHT31;50512;53.666;9.700;2022-07-29T04:02:38;12.84;84.18
64198;SHT31;50512;53.666;9.700;2022-07-29T04:05:05;12.88;83.22
64198;SHT31;50512;53.666;9.700;2022-07-29T04:07:36;12.90;83.69
64198;SHT31;50512;53.666;9.700;2022-07-29T04:10:02;12.97;83.84
64198;SHT31;50512;53.666;9.700;2022-07-29T04:12:28;12.98;84.36
64198;SHT31;50512;53.666;9.700;2022-07-29T04:14:55;13.01;83.94
64198;SHT31;50512;53.666;9.700;2022-07-29T04:17:20;13.08;83.34
64198;SHT31;50512;53.666;9.700;2022-07-29T04:19:46;13.12;83.29
64198;SHT31;50512;53.666;9.700;2022-07-29T04:22:12;13.16;83.17
64198;SHT31;50512;53.666;9.700;2022-07-29T04:24:37;13.19;82.51
64198;SHT31;50512;53.666;9.700;2022-07-29T04:27:03;13.28;82.69
64198;SHT31;50512;53.666;9.700;2022-07-29T04:29:29;13.32;82.79
64198;SHT31;50512;53.666;9.700;2022-07-29T04:31:56;13.35;82.47
64198;SHT31;50512;53.666;9.700;2022-07-29T04:34:21;13.45;82.23
64198;SHT31;50512;53.666;9.700;2022-07-29T04:36:47;13.40;82.40
64198;SHT31;50512;53.666;9.700;2022-07-29T04:39:13;13.43;82.43
64198;SHT31;50512;53.666;9.700;2022-07-29T04:41:38;13.46;82.15
64198;SHT31;50512;53.666;9.700;2022-07-29T04:44:04;13.56;81.94
64198;SHT31;50512;53.666;9.700;2022-07-29T04:46:30;13.63;81.39
64198;SHT31;50512;53.666;9.700;2022-07-29T04:48:57;13.56;82.15
64198;SHT31;50512;53.666;9.700;2022-07-29T04:51:22;13.59;82.00
64198;SHT31;50512;53.666;9.700;2022-07-29T04:53:48;13.60;81.71
64198;SHT31;50512;53.666;9.700;2022-07-29T04:56:14;13.66;81.21
64198;SHT31;50512;53.666;9.700;2022-07-29T04:58:40;13.71;81.08
64198;SHT31;50512;53.666;9.700;2022-07-29T05:01:05;13.70;81.33
64198;SHT31;50512;53.666;9.700;2022-07-29T05:03:31;13.80;80.72
64198;SHT31;50512;53.666;9.700;2022-07-29T05:05:58;13.77;81.13
64198;SHT31;50512;53.666;9.700;2022-07-29T05:08:24;13.78;81.33
64198;SHT31;50512;53.666;9.700;2022-07-29T05:10:49;13.84;81.32
64198;SHT31;50512;53.666;9.700;2022-07-29T05:13:15;13.88;81.04
64198;SHT31;50512;53.666;9.700;2022-07-29T05:15:41;13.93;81.43
64198;SHT31;50512;53.666;9.700;2022-07-29T05:18:07;13.98;80.98
64198;SHT31;50512;53.666;9.700;2022-07-29T05:20:32;14.02;81.41
64198;SHT31;50512;53.666;9.700;2022-07-29T05:23:00;14.08;81.71
64198;SHT31;50512;53.666;9.700;2022-07-29T05:25:27;14.26;80.59
64198;SHT31;50512;53.666;9.700;2022-07-29T05:27:53;14.26;79.85
64198;SHT31;50512;53.666;9.700;2022-07-29T05:30:20;14.29;80.52
64198;SHT31;50512;53.666;9.700;2022-07-29T05:32:45;14.39;80.17
64198;SHT31;50512;53.666;9.700;2022-07-29T05:35:12;14.46;79.64
64198;SHT31;50512;53.666;9.700;2022-07-29T05:37:38;14.45;80.34
64198;SHT31;50512;53.666;9.700;2022-07-29T05:40:06;14.60;79.45
64198;SHT31;50512;53.666;9.700;2022-07-29T05:42:32;14.60;79.31
64198;SHT31;50512;53.666;9.700;2022-07-29T05:44:58;14.66;79.54
64198;SHT31;50512;53.666;9.700;2022-07-29T05:47:24;14.67;78.94
64198;SHT31;50512;53.666;9.700;2022-07-29T05:49:49;14.80;80.15
64198;SHT31;50512;53.666;9.700;2022-07-29T05:52:15;14.90;79.18
64198;SHT31;50512;53.666;9.700;2022-07-29T05:54:41;15.00;79.37
64198;SHT31;50512;53.666;9.700;2022-07-29T05:57:15;15.05;78.59
64198;SHT31;50512;53.666;9.700;2022-07-29T05:59:41;15.12;78.14
64198;SHT31;50512;53.666;9.700;2022-07-29T06:02:06;15.25;78.52
64198;SHT31;50512;53.666;9.700;2022-07-29T06:04:32;15.32;77.69
64198;SHT31;50512;53.666;9.700;2022-07-29T06:06:58;15.46;77.40
64198;SHT31;50512;53.666;9.700;2022-07-29T06:09:24;15.49;76.58
64198;SHT31;50512;53.666;9.700;2022-07-29T06:11:49;15.49;76.45
64198;SHT31;50512;53.666;9.700;2022-07-29T06:14:16;15.46;76.65
64198;SHT31;50512;53.666;9.700;2022-07-29T06:16:42;15.55;76.75
64198;SHT31;50512;53.666;9.700;2022-07-29T06:19:07;15.62;77.28
64198;SHT31;50512;53.666;9.700;2022-07-29T06:21:33;15.70;76.86
64198;SHT31;50512;53.666;9.700;2022-07-29T06:23:59;15.70;76.25
64198;SHT31;50512;53.666;9.700;2022-07-29T06:26:24;15.80;75.62
64198;SHT31;50512;53.666;9.700;2022-07-29T06:28:50;15.84;75.85
64198;SHT31;50512;53.666;9.700;2022-07-29T06:31:17;15.93;76.24
64198;SHT31;50512;53.666;9.700;2022-07-29T06:33:43;15.94;76.11
64198;SHT31;50512;53.666;9.700;2022-07-29T06:36:08;16.10;75.74
64198;SHT31;50512;53.666;9.700;2022-07-29T06:38:34;16.11;74.97
64198;SHT31;50512;53.666;9.700;2022-07-29T06:41:00;16.18;75.27
64198;SHT31;50512;53.666;9.700;2022-07-29T06:43:27;16.31;75.33
64198;SHT31;50512;53.666;9.700;2022-07-29T06:45:52;16.35;74.27
64198;SHT31;50512;53.666;9.700;2022-07-29T06:48:19;16.25;74.25
64198;SHT31;50512;53.666;9.700;2022-07-29T06:50:45;16.53;74.64
64198;SHT31;50512;53.666;9.700;2022-07-29T06:53:10;16.72;74.20
64198;SHT31;50512;53.666;9.700;2022-07-29T06:55:36;16.65;73.80
64198;SHT31;50512;53.666;9.700;2022-07-29T06:58:02;16.87;73.85
64198;SHT31;50512;53.666;9.700;2022-07-29T07:00:28;16.93;73.69
64198;SHT31;50512;53.666;9.700;2022-07-29T07:02:54;16.99;73.31
64198;SHT31;50512;53.666;9.700;2022-07-29T07:05:22;17.14;72.92
64198;SHT31;50512;53.666;9.700;2022-07-29T07:07:47;17.21;72.80
64198;SHT31;50512;53.666;9.700;2022-07-29T07:10:13;17.36;72.51
64198;SHT31;50512;53.666;9.700;2022-07-29T07:12:39;17.49;72.46
64198;SHT31;50512;53.666;9.700;2022-07-29T07:15:05;17.51;71.86
64198;SHT31;50512;53.666;9.700;2022-07-29T07:17:31;17.68;72.62
64198;SHT31;50512;53.666;9.700;2022-07-29T07:19:57;17.43;71.90
64198;SHT31;50512;53.666;9.700;2022-07-29T07:22:24;17.76;72.94
64198;SHT31;50512;53.666;9.700;2022-07-29T07:24:49;17.91;72.47
64198;SHT31;50512;53.666;9.700;2022-07-29T07:27:15;18.03;71.31
64198;SHT31;50512;53.666;9.700;2022-07-29T07:29:41;18.08;70.58
64198;SHT31;50512;53.666;9.700;2022-07-29T07:32:06;18.04;71.42
64198;SHT31;50512;53.666;9.700;2022-07-29T07:34:32;18.20;70.64
64198;SHT31;50512;53.666;9.700;2022-07-29T07:36:58;18.31;70.48
64198;SHT31;50512;53.666;9.700;2022-07-29T07:39:25;18.34;70.68
64198;SHT31;50512;53.666;9.700;2022-07-29T07:41:51;18.59;71.29
64198;SHT31;50512;53.666;9.700;2022-07-29T07:44:16;18.70;70.28
64198;SHT31;50512;53.666;9.700;2022-07-29T07:46:42;19.13;70.37
64198;SHT31;50512;53.666;9.700;2022-07-29T07:49:07;19.28;67.49
64198;SHT31;50512;53.666;9.700;2022-07-29T07:51:34;19.52;66.92
64198;SHT31;50512;53.666;9.700;2022-07-29T07:54:00;20.03;65.20
64198;SHT31;50512;53.666;9.700;2022-07-29T07:56:27;20.83;62.49
64198;SHT31;50512;53.666;9.700;2022-07-29T07:58:52;21.98;59.69
64198;SHT31;50512;53.666;9.700;2022-07-29T08:01:18;22.92;58.04
64198;SHT31;50512;53.666;9.700;2022-07-29T08:03:44;23.40;56.53
64198;SHT31;50512;53.666;9.700;2022-07-29T08:06:10;23.23;55.91
64198;SHT31;50512;53.666;9.700;2022-07-29T08:08:35;23.86;55.70
64198;SHT31;50512;53.666;9.700;2022-07-29T08:11:02;23.77;55.40
64198;SHT31;50512;53.666;9.700;2022-07-29T08:13:29;23.70;55.69
64198;SHT31;50512;53.666;9.700;2022-07-29T08:15:56;23.36;57.43
64198;SHT31;50512;53.666;9.700;2022-07-29T08:18:22;23.03;58.24
64198;SHT31;50512;53.666;9.700;2022-07-29T08:20:48;22.76;58.39
64198;SHT31;50512;53.666;9.700;2022-07-29T08:23:14;22.16;58.78
64198;SHT31;50512;53.666;9.700;2022-07-29T08:25:39;21.77;59.83
64198;SHT31;50512;53.666;9.700;2022-07-29T08:28:05;21.75;61.20
64198;SHT31;50512;53.666;9.700;2022-07-29T08:30:32;21.37;62.09
64198;SHT31;50512;53.666;9.700;2022-07-29T08:32:58;21.43;62.30
64198;SHT31;50512;53.666;9.700;2022-07-29T08:35:25;21.53;62.68
64198;SHT31;50512;53.666;9.700;2022-07-29T08:37:51;22.20;61.18
64198;SHT31;50512;53.666;9.700;2022-07-29T08:40:17;22.65;59.90
64198;SHT31;50512;53.666;9.700;2022-07-29T08:42:43;23.03;56.88
64198;SHT31;50512;53.666;9.700;2022-07-29T08:45:09;23.20;57.75
64198;SHT31;50512;53.666;9.700;2022-07-29T08:47:38;23.74;57.73
64198;SHT31;50512;53.666;9.700;2022-07-29T08:50:05;23.81;57.79
64198;SHT31;50512;53.666;9.700;2022-07-29T08:52:33;23.57;55.81
64198;SHT31;50512;53.666;9.700;2022-07-29T08:55:01;23.39;57.25
64198;SHT31;50512;53.666;9.700;2022-07-29T08:57:27;23.57;57.71
64198;SHT31;50512;53.666;9.700;2022-07-29T08:59:54;23.55;56.71
64198;SHT31;50512;53.666;9.700;2022-07-29T09:02:21;23.64;57.26
64198;SHT31;50512;53.666;9.700;2022-07-29T09:04:49;23.63;56.76
64198;SHT31;50512;53.666;9.700;2022-07-29T09:07:15;23.71;57.56
64198;SHT31;50512;53.666;9.700;2022-07-29T09:09:41;23.82;56.70
64198;SHT31;50512;53.666;9.700;2022-07-29T09:12:07;23.82;56.64
64198;SHT31;50512;53.666;9.700;2022-07-29T09:14:34;23.81;56.50
64198;SHT31;50512;53.666;9.700;2022-07-29T09:17:00;23.64;55.75
64198;SHT31;50512;53.666;9.700;2022-07-29T09:19:28;23.55;57.41
64198;SHT31;50512;53.666;9.700;2022-07-29T09:21:56;23.53;57.17
64198;SHT31;50512;53.666;9.700;2022-07-29T09:24:22;23.36;56.86
64198;SHT31;50512;53.666;9.700;2022-07-29T09:26:48;23.27;57.94
64198;SHT31;50512;53.666;9.700;2022-07-29T09:29:15;23.24;56.80
64198;SHT31;50512;53.666;9.700;2022-07-29T09:31:42;23.19;56.95
64198;SHT31;50512;53.666;9.700;2022-07-29T09:34:08;23.10;58.77
64198;SHT31;50512;53.666;9.700;2022-07-29T09:36:41;22.98;57.21
64198;SHT31;50512;53.666;9.700;2022-07-29T09:39:08;22.84;58.18
64198;SHT31;50512;53.666;9.700;2022-07-29T09:41:49;22.76;56.99
64198;SHT31;50512;53.666;9.700;2022-07-29T09:44:16;22.71;54.68
64198;SHT31;50512;53.666;9.700;2022-07-29T09:46:54;22.72;53.88
64198;SHT31;50512;53.666;9.700;2022-07-29T09:49:20;22.54;55.82
64198;SHT31;50512;53.666;9.700;2022-07-29T09:51:47;22.47;55.01
64198;SHT31;50512;53.666;9.700;2022-07-29T09:54:23;22.37;56.15
64198;SHT31;50512;53.666;9.700;2022-07-29T09:56:49;22.40;57.30
64198;SHT31;50512;53.666;9.700;2022-07-29T09:59:15;22.43;58.20
64198;SHT31;50512;53.666;9.700;2022-07-29T10:01:42;22.33;57.57
64198;SHT31;50512;53.666;9.700;2022-07-29T10:04:07;22.40;58.19
64198;SHT31;50512;53.666;9.700;2022-07-29T10:06:33;22.41;56.26
64198;SHT31;50512;53.666;9.700;2022-07-29T10:09:07;22.44;57.76
64198;SHT31;50512;53.666;9.700;2022-07-29T10:11:34;22.48;57.51
64198;SHT31;50512;53.666;9.700;2022-07-29T10:14:02;22.47;57.40
64198;SHT31;50512;53.666;9.700;2022-07-29T10:16:28;22.45;57.63
64198;SHT31;50512;53.666;9.700;2022-07-29T10:18:53;22.45;56.59
64198;SHT31;50512;53.666;9.700;2022-07-29T10:21:20;22.45;57.45
64198;SHT31;50512;53.666;9.700;2022-07-29T10:23:46;22.44;58.98
64198;SHT31;50512;53.666;9.700;2022-07-29T10:26:11;22.39;58.63
64198;SHT31;50512;53.666;9.700;2022-07-29T10:28:39;22.36;57.83
64198;SHT31;50512;53.666;9.700;2022-07-29T10:31:06;22.32;58.32
64198;SHT31;50512;53.666;9.700;2022-07-29T10:33:50;22.26;54.67
64198;SHT31;50512;53.666;9.700;2022-07-29T10:36:38;22.29;55.04
64198;SHT31;50512;53.666;9.700;2022-07-29T10:39:17;22.23;56.61
64198;SHT31;50512;53.666;9.700;2022-07-29T10:41:59;22.30;56.78
64198;SHT31;50512;53.666;9.700;2022-07-29T10:44:28;22.30;56.73
64198;SHT31;50512;53.666;9.700;2022-07-29T10:46:56;22.34;57.34
64198;SHT31;50512;53.666;9.700;2022-07-29T10:49:22;22.40;58.25
64198;SHT31;50512;53.666;9.700;2022-07-29T10:52:00;22.41;56.46
64198;SHT31;50512;53.666;9.700;2022-07-29T10:54:48;22.47;57.50
64198;SHT31;50512;53.666;9.700;2022-07-29T10:57:22;22.58;56.97
64198;SHT31;50512;53.666;9.700;2022-07-29T10:59:51;22.68;57.49
64198;SHT31;50512;53.666;9.700;2022-07-29T11:02:44;22.79;58.39
64198;SHT31;50512;53.666;9.700;2022-07-29T11:05:11;22.94;57.72
64198;SHT31;50512;53.666;9.700;2022-07-29T11:07:39;23.03;57.60
64198;SHT31;50512;53.666;9.700;2022-07-29T11:10:20;23.24;56.83
64198;SHT31;50512;53.666;9.700;2022-07-29T11:12:47;23.37;55.09
64198;SHT31;50512;53.666;9.700;2022-07-29T11:15:14;23.63;54.66
64198;SHT31;50512;53.666;9.700;2022-07-29T11:18:05;23.86;54.78
64198;SHT31;50512;53.666;9.700;2022-07-29T11:20:31;24.15;54.22
64198;SHT31;50512;53.666;9.700;2022-07-29T11:22:57;24.47;52.92
64198;SHT31;50512;53.666;9.700;2022-07-29T11:25:23;24.70;50.47
64198;SHT31;50512;53.666;9.700;2022-07-29T11:27:49;24.50;50.52
64198;SHT31;50512;53.666;9.700;2022-07-29T11:30:16;24.81;49.23
64198;SHT31;50512;53.666;9.700;2022-07-29T11:32:42;25.16;49.40
64198;SHT31;50512;53.666;9.700;2022-07-29T11:35:14;25.37;47.90
64198;SHT31;50512;53.666;9.700;2022-07-29T11:37:39;25.66;47.69
64198;SHT31;50512;53.666;9.700;2022-07-29T11:40:16;25.92;47.93
64198;SHT31;50512;53.666;9.700;2022-07-29T11:42:43;26.31;47.04
64198;SHT31;50512;53.666;9.700;2022-07-29T11:45:10;26.49;47.56
64198;SHT31;50512;53.666;9.700;2022-07-29T11:47:38;26.82;46.29
64198;SHT31;50512;53.666;9.700;2022-07-29T11:50:07;26.50;44.38
64198;SHT31;50512;53.666;9.700;2022-07-29T11:52:33;26.49;46.16
64198;SHT31;50512;53.666;9.700;2022-07-29T11:55:02;26.32;45.50
64198;SHT31;50512;53.666;9.700;2022-07-29T11:57:28;26.56;46.68
64198;SHT31;50512;53.666;9.700;2022-07-29T11:59:55;26.57;46.25
64198;SHT31;50512;53.666;9.700;2022-07-29T12:02:22;26.60;45.28
64198;SHT31;50512;53.666;9.700;2022-07-29T12:04:49;26.46;46.08
64198;SHT31;50512;53.666;9.700;2022-07-29T12:07:15;26.56;46.78
64198;SHT31;50512;53.666;9.700;2022-07-29T12:09:49;26.60;46.86
64198;SHT31;50512;53.666;9.700;2022-07-29T12:12:15;26.49;43.91
64198;SHT31;50512;53.666;9.700;2022-07-29T12:14:41;26.14;42.95
64198;SHT31;50512;53.666;9.700;2022-07-29T12:17:06;26.19;42.47
64198;SHT31;50512;53.666;9.700;2022-07-29T12:19:41;26.11;43.48
64198;SHT31;50512;53.666;9.700;2022-07-29T12:22:08;26.06;43.71
64198;SHT31;50512;53.666;9.700;2022-07-29T12:24:43;26.05;43.43
64198;SHT31;50512;53.666;9.700;2022-07-29T12:27:08;26.15;44.23
64198;SHT31;50512;53.666;9.700;2022-07-29T12:29:34;26.24;42.15
64198;SHT31;50512;53.666;9.700;2022-07-29T12:31:59;26.35;41.36
64198;SHT31;50512;53.666;9.700;2022-07-29T12:34:28;26.50;41.93
64198;SHT31;50512;53.666;9.700;2022-07-29T12:36:53;26.63;41.22
64198;SHT31;50512;53.666;9.700;2022-07-29T12:39:20;26.72;40.98
64198;SHT31;50512;53.666;9.700;2022-07-29T12:41:46;26.84;41.41
64198;SHT31;50512;53.666;9.700;2022-07-29T12:44:11;26.95;41.22
64198;SHT31;50512;53.666;9.700;2022-07-29T12:46:37;26.83;41.34
64198;SHT31;50512;53.666;9.700;2022-07-29T12:49:03;26.79;41.43
64198;SHT31;50512;53.666;9.700;2022-07-29T12:51:30;26.82;41.72
64198;SHT31;50512;53.666;9.700;2022-07-29T12:54:03;26.73;42.41
64198;SHT31;50512;53.666;9.700;2022-07-29T12:56:30;26.45;43.56
64198;SHT31;50512;53.666;9.700;2022-07-29T12:58:56;26.39;42.48
64198;SHT31;50512;53.666;9.700;2022-07-29T13:01:22;26.33;43.17
64198;SHT31;50512;53.666;9.700;2022-07-29T13:03:50;26.38;43.72
64198;SHT31;50512;53.666;9.700;2022-07-29T13:06:34;26.50;43.31
64198;SHT31;50512;53.666;9.700;2022-07-29T13:09:03;26.59;42.28
64198;SHT31;50512;53.666;9.700;2022-07-29T13:11:31;26.46;45.09
64198;SHT31;50512;53.666;9.700;2022-07-29T13:13:56;26.29;44.66
64198;SHT31;50512;53.666;9.700;2022-07-29T13:16:22;26.43;45.32
64198;SHT31;50512;53.666;9.700;2022-07-29T13:18:47;26.50;45.36
64198;SHT31;50512;53.666;9.700;2022-07-29T13:21:14;26.50;44.35
64198;SHT31;50512;53.666;9.700;2022-07-29T13:23:40;26.55;45.74
64198;SHT31;50512;53.666;9.700;2022-07-29T13:26:06;26.61;45.65
64198;SHT31;50512;53.666;9.700;2022-07-29T13:28:33;26.82;44.31
64198;SHT31;50512;53.666;9.700;2022-07-29T13:30:58;26.57;44.63
64198;SHT31;50512;53.666;9.700;2022-07-29T13:33:23;26.73;44.41
64198;SHT31;50512;53.666;9.700;2022-07-29T13:35:49;26.74;44.24
64198;SHT31;50512;53.666;9.700;2022-07-29T13:38:15;26.66;43.83
64198;SHT31;50512;53.666;9.700;2022-07-29T13:40:40;26.69;43.99
64198;SHT31;50512;53.666;9.700;2022-07-29T13:43:08;26.55;45.57
64198;SHT31;50512;53.666;9.700;2022-07-29T13:45:35;26.04;45.93
64198;SHT31;50512;53.666;9.700;2022-07-29T13:48:01;26.12;46.97
64198;SHT31;50512;53.666;9.700;2022-07-29T13:50:26;26.01;46.52
64198;SHT31;50512;53.666;9.700;2022-07-29T13:52:52;25.90;46.94
64198;SHT31;50512;53.666;9.700;2022-07-29T13:55:17;25.64;47.30
64198;SHT31;50512;53.666;9.700;2022-07-29T13:57:43;25.50;48.04
64198;SHT31;50512;53.666;9.700;2022-07-29T14:00:09;25.45;47.92
64198;SHT31;50512;53.666;9.700;2022-07-29T14:02:36;25.51;47.33
64198;SHT31;50512;53.666;9.700;2022-07-29T14:05:01;25.49;49.43
64198;SHT31;50512;53.666;9.700;2022-07-29T14:07:27;25.35;49.58
64198;SHT31;50512;53.666;9.700;2022-07-29T14:09:52;25.22;50.81
64198;SHT31;50512;53.666;9.700;2022-07-29T14:12:18;25.08;50.37
64198;SHT31;50512;53.666;9.700;2022-07-29T14:14:43;24.99;51.14
64198;SHT31;50512;53.666;9.700;2022-07-29T14:17:09;25.02;52.14
64198;SHT31;50512;53.666;9.700;2022-07-29T14:19:36;24.90;51.26
64198;SHT31;50512;53.666;9.700;2022-07-29T14:22:02;24.88;52.56
64198;SHT31;50512;53.666;9.700;2022-07-29T14:24:27;24.82;52.66
64198;SHT31;50512;53.666;9.700;2022-07-29T14:26:53;24.77;53.03
64198;SHT31;50512;53.666;9.700;2022-07-29T14:29:19;24.59;52.05
64198;SHT31;50512;53.666;9.700;2022-07-29T14:31:45;24.54;53.24
64198;SHT31;50512;53.666;9.700;2022-07-29T14:34:11;24.59;54.35
64198;SHT31;50512;53.666;9.700;2022-07-29T14:36:38;24.54;53.06
64198;SHT31;50512;53.666;9.700;2022-07-29T14:39:03;24.60;52.91
64198;SHT31;50512;53.666;9.700;2022-07-29T14:41:31;24.74;53.60
64198;SHT31;50512;53.666;9.700;2022-07-29T14:43:56;24.82;53.11
64198;SHT31;50512;53.666;9.700;2022-07-29T14:46:22;24.95;51.88
64198;SHT31;50512;53.666;9.700;2022-07-29T14:48:48;25.09;52.49
64198;SHT31;50512;53.666;9.700;2022-07-29T14:51:14;25.07;52.54
64198;SHT31;50512;53.666;9.700;2022-07-29T14:53:41;25.08;51.92
64198;SHT31;50512;53.666;9.700;2022-07-29T14:56:06;25.09;52.03
64198;SHT31;50512;53.666;9.700;2022-07-29T14:58:32;25.14;52.49
64198;SHT31;50512;53.666;9.700;2022-07-29T15:00:58;25.01;51.03
64198;SHT31;50512;53.666;9.700;2022-07-29T15:03:23;24.90;52.38
64198;SHT31;50512;53.666;9.700;2022-07-29T15:05:49;24.59;51.89
64198;SHT31;50512;53.666;9.700;2022-07-29T15:08:15;24.44;52.97
64198;SHT31;50512;53.666;9.700;2022-07-29T15:10:42;24.29;52.63
64198;SHT31;50512;53.666;9.700;2022-07-29T15:13:08;24.15;52.26
64198;SHT31;50512;53.666;9.700;2022-07-29T15:15:33;24.15;51.67
64198;SHT31;50512;53.666;9.700;2022-07-29T15:17:59;24.15;53.12
64198;SHT31;50512;53.666;9.700;2022-07-29T15:20:25;24.12;53.07
64198;SHT31;50512;53.666;9.700;2022-07-29T15:22:50;23.99;53.35
64198;SHT31;50512;53.666;9.700;2022-07-29T15:25:16;24.08;53.43
64198;SHT31;50512;53.666;9.700;2022-07-29T15:27:43;24.01;53.84
64198;SHT31;50512;53.666;9.700;2022-07-29T15:30:10;24.02;54.49
64198;SHT31;50512;53.666;9.700;2022-07-29T15:32:36;24.04;53.94